createdAt,value
2018-10-05T00:02:18.618Z,9.10
2018-10-05T00:04:46.607Z,8.60
2018-10-05T00:07:14.567Z,8.30
2018-10-05T00:09:42.486Z,8.53
2018-10-05T00:12:11.389Z,9.07
2018-10-05T00:14:39.204Z,8.70
2018-10-05T00:17:07.126Z,9.30
2018-10-05T00:19:36.002Z,9.27
2018-10-05T00:22:05.945Z,9.83
2018-10-05T00:24:33.772Z,8.87
2018-10-05T00:27:02.669Z,9.60
2018-10-05T00:29:30.541Z,9.80
2018-10-05T00:31:59.442Z,8.97
2018-10-05T00:34:28.475Z,9.73
2018-10-05T00:36:56.422Z,9.90
2018-10-05T00:39:24.355Z,10.40
2018-10-05T00:41:52.249Z,9.40
2018-10-05T00:44:21.180Z,9.03
2018-10-05T00:46:49.099Z,9.37
2018-10-05T00:49:16.959Z,8.90
2018-10-05T00:51:44.844Z,9.27
2018-10-05T00:54:17.825Z,10.40
2018-10-05T00:56:45.822Z,9.50
2018-10-05T00:59:13.738Z,8.40
2018-10-05T01:01:43.671Z,8.80
2018-10-05T01:04:11.569Z,7.80
2018-10-05T01:06:39.476Z,9.03
2018-10-05T01:09:08.786Z,8.10
2018-10-05T01:11:36.779Z,8.33
2018-10-05T01:14:04.726Z,8.23
2018-10-05T01:16:32.783Z,9.00
2018-10-05T01:19:00.761Z,7.67
2018-10-05T01:21:30.696Z,8.77
2018-10-05T01:23:58.629Z,8.97
2018-10-05T01:26:27.822Z,8.27
2018-10-05T01:28:55.749Z,8.70
2018-10-05T01:31:23.677Z,8.10
2018-10-05T01:33:55.118Z,8.10
2018-10-05T01:36:22.988Z,8.80
2018-10-05T01:38:50.954Z,8.23
2018-10-05T01:41:18.841Z,9.13
2018-10-05T01:43:46.770Z,8.30
2018-10-05T01:46:14.669Z,9.10
2018-10-05T01:48:44.675Z,8.70
2018-10-05T01:51:12.609Z,9.10
2018-10-05T01:53:40.550Z,9.07
2018-10-05T01:56:08.445Z,8.63
2018-10-05T01:58:36.326Z,8.10
2018-10-05T02:01:04.717Z,8.40
2018-10-05T02:03:33.666Z,8.37
2018-10-05T02:06:02.570Z,8.70
2018-10-05T02:08:30.587Z,8.70
2018-10-05T02:11:00.524Z,9.43
2018-10-05T02:13:28.418Z,8.27
2018-10-05T02:15:57.329Z,8.60
2018-10-05T02:18:25.290Z,7.87
2018-10-05T02:20:54.225Z,8.90
2018-10-05T02:23:23.132Z,8.80
2018-10-05T02:25:52.990Z,9.30
2018-10-05T02:28:21.925Z,8.93
2018-10-05T02:30:49.810Z,8.53
2018-10-05T02:33:18.683Z,9.37
2018-10-05T02:35:50.888Z,8.87
2018-10-05T02:38:18.956Z,9.00
2018-10-05T02:40:46.880Z,9.00
2018-10-05T02:43:14.786Z,9.20
2018-10-05T02:45:43.663Z,9.10
2018-10-05T02:48:13.553Z,9.17
2018-10-05T02:50:42.497Z,9.67
2018-10-05T02:53:10.487Z,9.60
2018-10-05T02:55:38.381Z,10.30
2018-10-05T02:58:07.282Z,9.20
2018-10-05T03:00:41.908Z,10.00
2018-10-05T03:03:09.784Z,10.23
2018-10-05T03:05:38.701Z,9.00
2018-10-05T03:08:06.628Z,9.97
2018-10-05T03:10:39.613Z,10.60
2018-10-05T03:13:08.575Z,10.50
2018-10-05T03:15:38.493Z,9.73
2018-10-05T03:18:07.451Z,11.00
2018-10-05T03:20:37.353Z,9.80
2018-10-05T03:23:05.226Z,10.70
2018-10-05T03:25:35.152Z,10.80
2018-10-05T03:28:04.066Z,9.23
2018-10-05T03:30:31.960Z,10.80
2018-10-05T03:32:59.858Z,10.27
2018-10-05T03:35:28.696Z,10.50
2018-10-05T03:37:57.637Z,10.70
2018-10-05T03:40:26.552Z,10.77
2018-10-05T03:42:54.445Z,10.60
2018-10-05T03:45:22.381Z,10.70
2018-10-05T03:47:50.353Z,11.33
2018-10-05T03:50:18.288Z,10.77
2018-10-05T03:52:47.192Z,10.70
2018-10-05T03:55:15.044Z,10.77
2018-10-05T03:57:43.959Z,10.20
2018-10-05T04:00:13.878Z,10.77
2018-10-05T04:02:42.724Z,9.90
2018-10-05T04:05:11.618Z,10.60
2018-10-05T04:07:39.488Z,9.90
2018-10-05T04:10:07.367Z,9.90
2018-10-05T04:12:36.277Z,9.10
2018-10-05T04:15:04.200Z,10.60
2018-10-05T04:17:32.079Z,9.50
2018-10-05T04:19:59.990Z,10.40
2018-10-05T04:22:30.452Z,9.87
2018-10-05T04:24:58.467Z,8.80
2018-10-05T04:27:28.376Z,9.17
2018-10-05T04:29:56.765Z,9.13
2018-10-05T04:32:24.755Z,9.27
2018-10-05T04:34:52.729Z,9.33
2018-10-05T04:37:20.652Z,9.70
2018-10-05T04:39:48.661Z,9.70
2018-10-05T04:42:16.613Z,9.23
2018-10-05T04:44:44.437Z,9.40
2018-10-05T04:47:12.311Z,8.93
2018-10-05T04:49:41.261Z,8.60
2018-10-05T04:52:09.173Z,9.07
2018-10-05T04:54:38.061Z,8.70
2018-10-05T04:57:07.037Z,9.00
2018-10-05T04:59:35.937Z,9.20
2018-10-05T05:02:04.901Z,9.87
2018-10-05T05:04:33.240Z,9.60
2018-10-05T05:07:02.133Z,9.53
2018-10-05T05:09:31.018Z,9.40
2018-10-05T05:12:00.976Z,9.37
2018-10-05T05:14:28.926Z,8.17
2018-10-05T05:16:57.784Z,9.27
2018-10-05T05:19:25.758Z,9.27
2018-10-05T05:21:53.653Z,9.70
2018-10-05T05:24:21.608Z,9.30
2018-10-05T05:26:50.483Z,9.27
2018-10-05T05:29:18.405Z,9.10
2018-10-05T05:31:46.312Z,9.50
2018-10-05T05:34:14.194Z,9.60
2018-10-05T05:36:42.064Z,9.10
2018-10-05T05:39:10.942Z,9.13
2018-10-05T05:41:38.812Z,9.10
2018-10-05T05:44:08.718Z,10.53
2018-10-05T05:46:37.647Z,10.20
2018-10-05T05:49:05.612Z,11.10
2018-10-05T05:51:33.596Z,10.63
2018-10-05T05:54:02.487Z,9.70
2018-10-05T05:56:31.390Z,9.47
2018-10-05T05:59:00.193Z,8.70
2018-10-05T06:01:28.092Z,8.23
2018-10-05T06:03:58.030Z,8.87
2018-10-05T06:06:26.911Z,7.90
2018-10-05T06:08:54.820Z,8.70
2018-10-05T06:11:22.808Z,8.50
2018-10-05T06:13:50.746Z,8.83
2018-10-05T06:16:20.689Z,8.60
2018-10-05T06:18:48.464Z,9.33
2018-10-05T06:21:22.383Z,8.83
2018-10-05T06:23:50.261Z,9.27
2018-10-05T06:26:19.181Z,9.03
2018-10-05T06:28:48.033Z,9.03
2018-10-05T06:31:15.995Z,8.80
2018-10-05T06:33:43.856Z,8.67
2018-10-05T06:37:16.910Z,8.63
2018-10-05T06:39:45.757Z,9.20
2018-10-05T06:42:15.789Z,7.90
2018-10-05T06:44:48.540Z,8.73
2018-10-05T06:47:16.420Z,8.67
2018-10-05T06:49:45.358Z,8.20
2018-10-05T06:52:14.211Z,8.30
2018-10-05T06:54:45.658Z,7.90
2018-10-05T06:57:15.621Z,8.10
2018-10-05T06:59:44.463Z,7.80
2018-10-05T07:02:13.326Z,8.10
2018-10-05T07:04:42.289Z,8.47
2018-10-05T07:07:10.219Z,8.70
2018-10-05T07:09:38.130Z,7.47
2018-10-05T07:12:06.983Z,7.73
2018-10-05T07:14:34.837Z,7.93
2018-10-05T07:17:03.797Z,8.03
2018-10-05T07:19:31.667Z,7.47
2018-10-05T07:21:59.579Z,7.80
2018-10-05T07:24:27.503Z,7.50
2018-10-05T07:26:55.457Z,7.27
2018-10-05T07:29:23.333Z,7.40
2018-10-05T07:31:51.257Z,6.63
2018-10-05T07:34:19.114Z,7.23
2018-10-05T07:36:47.069Z,6.80
2018-10-05T07:39:14.974Z,7.73
2018-10-05T07:41:42.942Z,6.67
2018-10-05T07:44:10.845Z,7.10
2018-10-05T07:46:39.014Z,7.23
2018-10-05T07:49:06.932Z,6.97
2018-10-05T07:51:34.786Z,6.43
2018-10-05T07:54:02.722Z,6.10
2018-10-05T07:56:30.655Z,6.07
2018-10-05T07:58:58.624Z,6.87
2018-10-05T08:01:26.489Z,6.33
2018-10-05T08:03:54.373Z,6.70
2018-10-05T08:06:22.323Z,6.47
2018-10-05T08:08:50.229Z,6.83
2018-10-05T08:11:18.113Z,6.97
2018-10-05T08:13:46.037Z,7.40
2018-10-05T08:16:14.002Z,7.10
2018-10-05T08:18:41.946Z,7.20
2018-10-05T08:21:09.863Z,7.23
2018-10-05T08:23:37.717Z,8.10
2018-10-05T08:26:05.859Z,8.20
2018-10-05T08:28:33.718Z,7.00
2018-10-05T08:31:02.613Z,7.00
2018-10-05T08:33:30.566Z,7.43
2018-10-05T08:35:58.437Z,7.23
2018-10-05T08:38:26.358Z,6.77
2018-10-05T08:40:54.194Z,6.27
2018-10-05T08:43:22.142Z,6.43
2018-10-05T08:45:50.165Z,5.83
2018-10-05T08:48:18.100Z,6.53
2018-10-05T08:50:45.942Z,7.60
2018-10-05T08:53:13.842Z,6.20
2018-10-05T08:55:41.705Z,6.13
2018-10-05T08:58:09.557Z,5.63
2018-10-05T09:00:38.533Z,6.23
2018-10-05T09:03:06.396Z,5.30
2018-10-05T09:05:34.289Z,6.70
2018-10-05T09:08:02.175Z,5.63
2018-10-05T09:10:30.091Z,6.30
2018-10-05T09:12:58.040Z,5.47
2018-10-05T09:15:25.976Z,5.10
2018-10-05T09:17:53.961Z,5.27
2018-10-05T09:20:21.776Z,4.90
2018-10-05T09:22:49.705Z,5.20
2018-10-05T09:25:17.606Z,4.50
2018-10-05T09:27:45.464Z,5.00
2018-10-05T09:30:13.340Z,5.03
2018-10-05T09:32:41.227Z,4.17
2018-10-05T09:35:09.110Z,4.23
2018-10-05T09:37:37.005Z,4.60
2018-10-05T09:40:04.912Z,4.63
2018-10-05T09:42:32.764Z,4.20
2018-10-05T09:45:00.730Z,4.10
2018-10-05T09:47:28.564Z,4.10
2018-10-05T09:49:56.582Z,3.63
2018-10-05T09:52:24.535Z,5.10
2018-10-05T09:54:52.385Z,4.90
2018-10-05T09:57:20.352Z,4.80
2018-10-05T09:59:48.287Z,4.50
2018-10-05T10:02:23.384Z,5.50
2018-10-05T10:04:51.265Z,5.33
2018-10-05T10:07:19.178Z,5.30
2018-10-05T10:09:47.161Z,5.10
2018-10-05T10:12:15.078Z,5.20
2018-10-05T10:14:42.957Z,5.10
2018-10-05T10:17:10.974Z,4.80
2018-10-05T10:19:39.855Z,4.67
2018-10-05T10:22:07.766Z,5.20
2018-10-05T10:24:35.681Z,4.83
2018-10-05T10:27:03.892Z,5.13
2018-10-05T10:29:31.762Z,4.40
2018-10-05T10:31:59.677Z,4.90
2018-10-05T10:34:27.746Z,4.77
2018-10-05T10:36:55.590Z,4.60
2018-10-05T10:39:23.493Z,5.13
2018-10-05T10:41:51.433Z,4.90
2018-10-05T10:44:19.303Z,4.97
2018-10-05T10:46:47.197Z,4.77
2018-10-05T10:49:15.113Z,4.60
2018-10-05T10:51:42.977Z,4.97
2018-10-05T10:54:10.932Z,4.50
2018-10-05T10:56:38.729Z,4.40
2018-10-05T10:59:06.594Z,4.00
2018-10-05T11:01:34.520Z,4.00
2018-10-05T11:04:02.402Z,4.17
2018-10-05T11:06:30.272Z,4.07
2018-10-05T11:08:58.208Z,4.70
2018-10-05T11:11:26.182Z,5.03
2018-10-05T11:13:54.159Z,4.70
2018-10-05T11:16:22.060Z,3.97
2018-10-05T11:18:49.995Z,3.70
2018-10-05T11:21:17.915Z,3.80
2018-10-05T11:23:45.799Z,4.17
2018-10-05T11:26:13.749Z,4.83
2018-10-05T11:28:41.596Z,5.00
2018-10-05T11:31:09.440Z,5.20
2018-10-05T11:33:37.352Z,4.20
2018-10-05T11:36:05.313Z,3.87
2018-10-05T11:38:33.202Z,4.70
2018-10-05T11:41:01.081Z,4.90
2018-10-05T11:43:29.016Z,4.37
2018-10-05T11:45:56.869Z,4.50
2018-10-05T11:48:24.771Z,5.43
2018-10-05T11:50:52.777Z,3.93
2018-10-05T11:53:20.693Z,5.30
2018-10-05T11:55:49.565Z,4.33
2018-10-05T11:58:17.442Z,4.57
2018-10-05T12:00:45.281Z,4.00
2018-10-05T12:03:13.181Z,4.27
2018-10-05T12:05:41.061Z,4.20
2018-10-05T12:08:08.925Z,4.20
2018-10-05T12:10:36.746Z,4.57
2018-10-05T12:13:04.672Z,3.77
2018-10-05T12:15:32.542Z,5.50
2018-10-05T12:18:00.485Z,4.60
2018-10-05T12:20:28.341Z,4.53
2018-10-05T12:22:56.245Z,3.97
2018-10-05T12:25:24.229Z,3.70
2018-10-05T12:27:52.149Z,4.40
2018-10-05T12:30:20.002Z,4.00
2018-10-05T12:32:47.908Z,4.13
2018-10-05T12:35:15.857Z,4.20
2018-10-05T12:37:43.691Z,4.20
2018-10-05T12:40:11.605Z,3.93
2018-10-05T12:45:06.701Z,4.20
2018-10-05T13:46:26.501Z,3.90
2018-10-05T14:47:46.244Z,3.93
2018-10-05T14:50:14.139Z,3.97
2018-10-05T14:52:42.042Z,3.70
2018-10-05T14:55:10.014Z,3.90
2018-10-05T14:57:37.984Z,3.57
2018-10-05T15:00:05.830Z,3.83
2018-10-05T15:02:33.748Z,3.73
2018-10-05T15:05:01.669Z,3.40
2018-10-05T15:07:29.604Z,3.60
2018-10-05T15:09:57.529Z,3.50
2018-10-05T15:12:25.597Z,3.50
2018-10-05T15:14:53.468Z,3.60
2018-10-05T16:28:28.376Z,4.33
2018-10-05T16:30:56.279Z,4.60
2018-10-05T16:33:24.600Z,4.60
2018-10-05T16:35:52.500Z,6.20
2018-10-05T16:38:20.426Z,4.83
2018-10-05T16:40:48.372Z,5.23
2018-10-05T16:43:16.294Z,5.03
2018-10-05T16:45:44.186Z,4.80
2018-10-05T16:48:12.060Z,4.70
2018-10-05T16:50:39.958Z,5.17
2018-10-05T16:53:07.792Z,4.47
2018-10-05T16:55:35.636Z,5.60
2018-10-05T17:17:42.114Z,6.87
2018-10-05T17:20:10.050Z,7.57
2018-10-05T17:22:37.995Z,7.20
2018-10-05T17:25:05.883Z,9.10
2018-10-05T17:27:33.728Z,8.30
2018-10-05T17:30:01.619Z,8.80
2018-10-05T17:32:29.444Z,8.40
2018-10-05T17:34:57.398Z,8.97
2018-10-05T17:37:25.326Z,8.07
2018-10-05T17:39:53.272Z,8.80
2018-10-05T17:42:21.141Z,8.80
2018-10-05T17:44:49.054Z,8.10
2018-10-05T17:47:16.908Z,8.33
2018-10-05T17:49:44.858Z,7.57
2018-10-05T17:52:12.954Z,8.10
2018-10-05T17:54:40.780Z,7.90
2018-10-05T17:57:08.608Z,8.00
2018-10-05T17:59:36.565Z,7.63
2018-10-05T18:02:04.620Z,8.43
2018-10-05T18:04:32.554Z,8.57
2018-10-05T18:07:00.429Z,7.70
2018-10-05T18:09:28.302Z,8.60
2018-10-05T18:11:56.182Z,8.97
2018-10-05T18:14:24.104Z,9.47
2018-10-05T18:16:51.975Z,9.43
2018-10-05T18:19:19.857Z,9.50
2018-10-05T18:21:47.758Z,9.83
2018-10-05T18:24:15.649Z,10.07
2018-10-05T18:26:43.518Z,9.83
2018-10-05T18:29:11.513Z,9.90
2018-10-05T18:31:39.393Z,9.43
2018-10-05T18:34:07.387Z,9.90
2018-10-05T18:36:35.236Z,10.33
2018-10-05T18:39:04.390Z,10.20
2018-10-05T18:41:32.260Z,10.90
2018-10-05T18:44:00.190Z,11.03
2018-10-05T18:46:28.155Z,11.70
2018-10-05T18:48:56.069Z,13.23
2018-10-05T18:51:24.001Z,13.00
2018-10-05T18:53:51.989Z,12.70
2018-10-05T18:56:25.619Z,12.07
2018-10-05T18:58:53.496Z,11.40
2018-10-05T19:01:21.389Z,11.87
2018-10-05T19:03:49.245Z,11.93
2018-10-05T19:06:17.133Z,12.60
2018-10-05T19:08:45.071Z,12.30
2018-10-05T19:11:12.997Z,13.30
2018-10-05T19:13:41.016Z,12.00
2018-10-05T19:16:09.818Z,12.70
2018-10-05T19:18:37.792Z,12.23
2018-10-05T19:21:05.739Z,12.30
2018-10-05T19:23:33.627Z,13.07
2018-10-05T19:26:01.588Z,12.10
2018-10-05T19:28:29.425Z,12.67
2018-10-05T19:30:57.349Z,13.33
2018-10-05T19:33:25.278Z,12.37
2018-10-05T19:35:53.178Z,12.00
2018-10-05T19:38:21.130Z,12.30
2018-10-05T19:40:49.082Z,12.10
2018-10-05T19:43:16.946Z,12.50
2018-10-05T19:45:44.867Z,12.73
2018-10-05T19:48:12.756Z,13.40
2018-10-05T19:50:40.764Z,12.23
2018-10-05T19:53:08.651Z,12.70
2018-10-05T19:55:36.491Z,12.97
2018-10-05T19:58:04.341Z,13.00
2018-10-05T20:00:32.189Z,11.83
2018-10-05T20:03:00.080Z,13.37
2018-10-05T20:05:27.961Z,12.87
2018-10-05T20:07:55.844Z,12.87
2018-10-05T20:10:24.725Z,13.10
2018-10-05T20:12:52.626Z,12.40
2018-10-05T20:15:20.589Z,12.30
2018-10-05T20:17:48.524Z,13.93
2018-10-05T20:20:16.280Z,13.37
2018-10-05T20:22:44.185Z,13.07
2018-10-05T20:25:12.100Z,13.27
2018-10-05T20:27:40.040Z,12.80
2018-10-05T20:30:08.547Z,13.57
2018-10-05T20:32:36.503Z,12.90
2018-10-05T20:35:04.419Z,13.63
2018-10-05T20:37:32.597Z,13.20
2018-10-05T20:40:00.394Z,14.27
2018-10-05T20:42:28.302Z,13.50
2018-10-05T20:44:56.189Z,14.20
2018-10-05T20:47:24.132Z,14.63
2018-10-05T20:49:52.397Z,15.30
2018-10-05T20:52:20.347Z,14.97
2018-10-05T20:54:48.226Z,14.77
2018-10-05T20:57:16.096Z,15.40
2018-10-05T20:59:44.009Z,14.00
2018-10-05T21:02:11.892Z,14.50
2018-10-05T21:04:39.837Z,14.70
2018-10-05T21:07:07.722Z,14.23
2018-10-05T21:09:35.790Z,13.53
2018-10-05T21:12:03.601Z,13.83
2018-10-05T21:14:31.493Z,13.30
2018-10-05T21:16:59.382Z,14.70
2018-10-05T21:19:27.208Z,13.57
2018-10-05T21:21:55.084Z,14.00
2018-10-05T21:24:22.932Z,13.70
2018-10-05T21:26:50.817Z,14.87
2018-10-05T21:29:18.773Z,13.30
2018-10-05T21:31:46.648Z,13.30
2018-10-05T21:34:14.500Z,13.07
2018-10-05T21:36:42.381Z,13.40
2018-10-05T21:39:11.214Z,12.90
2018-10-05T21:41:39.184Z,12.43
2018-10-05T21:44:07.122Z,11.93
2018-10-05T21:46:34.977Z,11.77
2018-10-05T21:49:02.920Z,12.50
2018-10-05T21:51:30.816Z,12.50
2018-10-05T21:53:58.725Z,11.73
2018-10-05T21:56:26.608Z,11.80
2018-10-05T21:58:54.578Z,13.13
2018-10-05T22:01:22.429Z,11.83
2018-10-05T22:03:51.250Z,12.43
2018-10-05T22:06:19.517Z,13.33
2018-10-05T22:08:47.498Z,12.10
2018-10-05T22:11:15.582Z,13.80
2018-10-05T22:13:43.830Z,12.67
2018-10-05T22:16:11.887Z,13.17
2018-10-05T22:18:39.841Z,12.23
2018-10-05T22:21:08.177Z,12.00
2018-10-05T22:23:36.120Z,13.00
2018-10-05T22:26:04.195Z,12.73
2018-10-05T22:28:32.101Z,12.50
2018-10-05T22:31:00.033Z,13.30
2018-10-05T22:33:27.921Z,13.20
2018-10-05T22:35:55.813Z,12.33
2018-10-05T22:38:23.712Z,13.10
2018-10-05T22:40:51.641Z,12.97
2018-10-05T22:43:19.553Z,13.10
2018-10-05T22:45:47.467Z,13.97
2018-10-05T22:48:15.365Z,12.87
2018-10-05T22:50:43.217Z,12.27
2018-10-05T22:53:11.075Z,13.10
2018-10-05T22:55:38.944Z,10.60
2018-10-05T23:00:34.992Z,11.47
2018-10-05T23:03:02.848Z,11.40
2018-10-05T23:05:30.700Z,10.55
2018-10-05T23:07:58.548Z,10.05
2018-10-05T23:22:41.776Z,10.30
2018-10-05T23:27:36.717Z,10.65
2018-10-05T23:49:41.364Z,11.20
2018-10-05T23:59:30.617Z,11.65
